Terminal Aerodrome Forecast
Issued by NWS Memphis, TN

Home | Current Version | Previous Version | Text Only | Print | Product List | Glossary On
Versions: 1 2 3 4 5 6 7 8 9 10 11 12 13 14 15 16 17 18
000
FTUS44 KMEG 221732
TAFMKL
TAF
KMKL 221732Z 2218/2318 16012G20KT P6SM -SHRA BKN025
     FM222100 26007KT P6SM -SHRA SCT010 OVC020
     FM230700 31007KT 4SM BR BKN008 OVC015
     FM231600 30009KT P6SM SCT030=

USA.gov is the U.S. government's official web portal to all federal, state and local government web resources and services.